Glovis Prime — D7AC — position and weather

sailwx.info

Track history (hours):
 
Tides and Currents Weather Stations Pressure Air Temp Water Temp Dewpoint Dewpoint Depression Visibility Wind Speed Wind Dir Waves Ship Positions

Glovis Prime

Last reported at 2018-Jun-19 12:30 UTC. Time now 2018-Jun-19 19:50 UTC.
Position N 33°38' E 134°51'.

Length 184 m; draft 8.1 m.

Type: Cargo ship. MMSI: 440062000.

Date/timePositionNaut miles runAvg speedWind from/ knotsBaromVisibWave heightAir tempDewpointWater temp
2018-Jun-19 12:30N 33°38' E 134°51'1114.9
2018-Jun-19 11:44N 33°49' E 134°55'314.6
2018-Jun-19 11:30N 33°52' E 134°55'714.3
2018-Jun-19 11:00N 33°59' E 134°56'714.9
2018-Jun-19 10:31N 34°07' E 134°56'714.5
2018-Jun-19 10:00N 34°14' E 134°58'714.2
2018-Jun-19 09:30N 34°21' E 134°59'816.9
2018-Jun-19 09:00N 34°28' E 135°06'917.2
2018-Jun-19 08:30N 34°34' E 135°13'612.7
2018-Jun-19 08:00N 34°40' E 135°15'1 2.2
2018-Jun-19 07:28N 34°41' E 135°15'0 0.0
2018-Jun-19 06:58N 34°41' E 135°15'0 0.0
2018-Jun-19 06:28N 34°41' E 135°15'0 0.0
2018-Jun-19 05:58N 34°41' E 135°15'0 0.0
2018-Jun-19 05:28N 34°41' E 135°15'0 0.0
2018-Jun-19 04:58N 34°41' E 135°15'0 0.0
2018-Jun-19 04:16N 34°41' E 135°15'0 0.0
2018-Jun-19 03:58N 34°41' E 135°15'0 0.0
2018-Jun-19 03:31N 34°41' E 135°15'0 0.0
2018-Jun-19 03:01N 34°41' E 135°15'0 0.0
2018-Jun-19 02:15N 34°41' E 135°15'0 0.0
2018-Jun-19 02:00N 34°41' E 135°15'0 0.2
2018-Jun-19 01:30N 34°41' E 135°15'2 4.3
2018-Jun-19 01:00N 34°39' E 135°16'612.9
2018-Jun-19 00:30N 34°33' E 135°14'815.6
2018-Jun-19 00:00N 34°26' E 135°08'815.4
2018-Jun-18 23:31N 34°21' E 135°02'714.1
2018-Jun-18 23:01N 34°14' E 134°59'510.9
2018-Jun-18 22:30N 34°09' E 134°59'3 6.9
2018-Jun-18 22:00N 34°06' E 134°57'4 7.9
2018-Jun-18 21:30N 34°02' E 134°57'612.0
2018-Jun-18 21:01N 33°56' E 134°58'815.3
2018-Jun-18 20:31N 33°48' E 134°58'815.4
2018-Jun-18 20:01N 33°41' E 134°59'1013.4
2018-Jun-18 19:18N 33°33' E 135°06'515.4
2018-Jun-18 18:57N 33°33' E 135°13'23714.9
2018-Jun-18 03:01N 34°59' E 139°40'216.7
2018-Jun-18 02:54N 35°01' E 139°41'716.4
2018-Jun-18 02:29N 35°07' E 139°45'612.9
2018-Jun-18 02:00N 35°13' E 139°46'612.5
2018-Jun-18 01:30N 35°19' E 139°43'713.2
2018-Jun-18 01:00N 35°25' E 139°42'2 3.4
2018-Jun-18 00:28N 35°27' E 139°41'0 0.0
2018-Jun-17 23:58N 35°27' E 139°41'0 0.0
2018-Jun-17 23:28N 35°27' E 139°41'0 0.0
2018-Jun-17 22:58N 35°27' E 139°41'0 0.0
2018-Jun-17 22:28N 35°27' E 139°41'0 0.0
2018-Jun-17 21:58N 35°27' E 139°41'0 0.0
2018-Jun-17 21:28N 35°27' E 139°41'0 0.0
2018-Jun-17 20:58N 35°27' E 139°41'0 0.0
2018-Jun-17 20:28N 35°27' E 139°41'0 0.0
2018-Jun-17 19:58N 35°27' E 139°41'0 0.0
2018-Jun-17 19:25N 35°27' E 139°41'0 0.0
2018-Jun-17 18:58N 35°27' E 139°41'0 0.0
2018-Jun-17 18:31N 35°27' E 139°41'0 0.0
2018-Jun-17 18:01N 35°27' E 139°41'0 0.0
2018-Jun-17 17:30N 35°27' E 139°41'0 0.0
2018-Jun-17 17:00N 35°27' E 139°41'0 0.0
2018-Jun-17 16:30N 35°27' E 139°41'0 0.0
2018-Jun-17 16:00N 35°27' E 139°41'0 0.0
2018-Jun-17 15:27N 35°27' E 139°41'0 0.0
2018-Jun-17 15:00N 35°27' E 139°41'0 0.0
2018-Jun-17 14:30N 35°27' E 139°41'0 0.0
2018-Jun-17 14:00N 35°27' E 139°41'0 0.0
2018-Jun-17 13:30N 35°27' E 139°41'0 0.0
2018-Jun-17 13:00N 35°27' E 139°41'0 0.0
2018-Jun-17 12:30N 35°27' E 139°41'0 0.0
2018-Jun-17 12:00N 35°27' E 139°41'0 0.0
2018-Jun-17 11:30N 35°27' E 139°41'0 0.0
2018-Jun-17 11:00N 35°27' E 139°41'0 0.0
2018-Jun-17 10:30N 35°27' E 139°41'0 0.0
2018-Jun-17 10:00N 35°27' E 139°41'0 0.0
2018-Jun-17 09:30N 35°27' E 139°41'0 0.0
2018-Jun-17 09:00N 35°27' E 139°41'0 0.0
2018-Jun-17 08:30N 35°27' E 139°41'0 0.0
2018-Jun-17 08:00N 35°27' E 139°41'0 0.0
2018-Jun-17 07:30N 35°27' E 139°41'0 0.0
2018-Jun-17 06:57N 35°27' E 139°41'0 0.0
2018-Jun-17 06:30N 35°27' E 139°41'0 0.0
2018-Jun-17 06:00N 35°27' E 139°41'0 0.0
2018-Jun-17 05:30N 35°27' E 139°41'0 0.0
2018-Jun-17 05:00N 35°27' E 139°41'0 0.0
2018-Jun-17 04:30N 35°27' E 139°41'0 0.0
2018-Jun-17 04:00N 35°27' E 139°41'0 0.0
2018-Jun-17 03:30N 35°27' E 139°41'0 0.0
2018-Jun-17 03:00N 35°27' E 139°41'0 0.0
2018-Jun-17 02:30N 35°27' E 139°41'0 0.0
2018-Jun-17 02:00N 35°27' E 139°41'0 0.0
2018-Jun-17 01:30N 35°27' E 139°41'0 0.0
2018-Jun-17 01:00N 35°27' E 139°41'1 1.6
2018-Jun-17 00:31N 35°27' E 139°42'4 7.8
2018-Jun-16 23:59N 35°23' E 139°43'510.1
2018-Jun-16 23:30N 35°18' E 139°45'611.0
2018-Jun-16 23:00N 35°13' E 139°47'510.2
2018-Jun-16 22:30N 35°08' E 139°47'4 8.9
2018-Jun-16 22:00N 35°03' E 139°45'  
Track history (hours):
 
Tides and Currents Weather Stations Pressure Air Temp Water Temp Dewpoint Dewpoint Depression Visibility Wind Speed Wind Dir Waves Ship Positions

Glovis Prime

Last reported at 2018-Jun-19 12:30 UTC. Time now 2018-Jun-19 19:50 UTC.
Position N 33°38' E 134°51'.

Length 184 m; draft 8.1 m.

Type: Cargo ship. MMSI: 440062000.

Date/timePositionNaut miles runAvg speedWind from/ knotsBaromVisibWave heightAir tempDewpointWater temp
2018-Jun-19 12:30N 33°38' E 134°51'1114.9
2018-Jun-19 11:44N 33°49' E 134°55'314.6
2018-Jun-19 11:30N 33°52' E 134°55'714.3
2018-Jun-19 11:00N 33°59' E 134°56'714.9
2018-Jun-19 10:31N 34°07' E 134°56'714.5
2018-Jun-19 10:00N 34°14' E 134°58'714.2
2018-Jun-19 09:30N 34°21' E 134°59'816.9
2018-Jun-19 09:00N 34°28' E 135°06'917.2
2018-Jun-19 08:30N 34°34' E 135°13'612.7
2018-Jun-19 08:00N 34°40' E 135°15'1 2.2
2018-Jun-19 07:28N 34°41' E 135°15'0 0.0
2018-Jun-19 06:58N 34°41' E 135°15'0 0.0
2018-Jun-19 06:28N 34°41' E 135°15'0 0.0
2018-Jun-19 05:58N 34°41' E 135°15'0 0.0
2018-Jun-19 05:28N 34°41' E 135°15'0 0.0
2018-Jun-19 04:58N 34°41' E 135°15'0 0.0
2018-Jun-19 04:16N 34°41' E 135°15'0 0.0
2018-Jun-19 03:58N 34°41' E 135°15'0 0.0
2018-Jun-19 03:31N 34°41' E 135°15'0 0.0
2018-Jun-19 03:01N 34°41' E 135°15'0 0.0
2018-Jun-19 02:15N 34°41' E 135°15'0 0.0
2018-Jun-19 02:00N 34°41' E 135°15'0 0.2
2018-Jun-19 01:30N 34°41' E 135°15'2 4.3
2018-Jun-19 01:00N 34°39' E 135°16'612.9
2018-Jun-19 00:30N 34°33' E 135°14'815.6
2018-Jun-19 00:00N 34°26' E 135°08'815.4
2018-Jun-18 23:31N 34°21' E 135°02'714.1
2018-Jun-18 23:01N 34°14' E 134°59'510.9
2018-Jun-18 22:30N 34°09' E 134°59'3 6.9
2018-Jun-18 22:00N 34°06' E 134°57'4 7.9
2018-Jun-18 21:30N 34°02' E 134°57'612.0
2018-Jun-18 21:01N 33°56' E 134°58'815.3
2018-Jun-18 20:31N 33°48' E 134°58'815.4
2018-Jun-18 20:01N 33°41' E 134°59'1013.4
2018-Jun-18 19:18N 33°33' E 135°06'515.4
2018-Jun-18 18:57N 33°33' E 135°13'23714.9
2018-Jun-18 03:01N 34°59' E 139°40'216.7
2018-Jun-18 02:54N 35°01' E 139°41'716.4
2018-Jun-18 02:29N 35°07' E 139°45'612.9
2018-Jun-18 02:00N 35°13' E 139°46'612.5
2018-Jun-18 01:30N 35°19' E 139°43'713.2
2018-Jun-18 01:00N 35°25' E 139°42'2 3.4
2018-Jun-18 00:28N 35°27' E 139°41'0 0.0
2018-Jun-17 23:58N 35°27' E 139°41'0 0.0
2018-Jun-17 23:28N 35°27' E 139°41'0 0.0
2018-Jun-17 22:58N 35°27' E 139°41'0 0.0
2018-Jun-17 22:28N 35°27' E 139°41'0 0.0
2018-Jun-17 21:58N 35°27' E 139°41'0 0.0
2018-Jun-17 21:28N 35°27' E 139°41'0 0.0
2018-Jun-17 20:58N 35°27' E 139°41'0 0.0
2018-Jun-17 20:28N 35°27' E 139°41'0 0.0
2018-Jun-17 19:58N 35°27' E 139°41'0 0.0
2018-Jun-17 19:25N 35°27' E 139°41'0 0.0
2018-Jun-17 18:58N 35°27' E 139°41'0 0.0
2018-Jun-17 18:31N 35°27' E 139°41'0 0.0
2018-Jun-17 18:01N 35°27' E 139°41'0 0.0
2018-Jun-17 17:30N 35°27' E 139°41'0 0.0
2018-Jun-17 17:00N 35°27' E 139°41'0 0.0
2018-Jun-17 16:30N 35°27' E 139°41'0 0.0
2018-Jun-17 16:00N 35°27' E 139°41'0 0.0
2018-Jun-17 15:27N 35°27' E 139°41'0 0.0
2018-Jun-17 15:00N 35°27' E 139°41'0 0.0
2018-Jun-17 14:30N 35°27' E 139°41'0 0.0
2018-Jun-17 14:00N 35°27' E 139°41'0 0.0
2018-Jun-17 13:30N 35°27' E 139°41'0 0.0
2018-Jun-17 13:00N 35°27' E 139°41'0 0.0
2018-Jun-17 12:30N 35°27' E 139°41'0 0.0
2018-Jun-17 12:00N 35°27' E 139°41'0 0.0
2018-Jun-17 11:30N 35°27' E 139°41'0 0.0
2018-Jun-17 11:00N 35°27' E 139°41'0 0.0
2018-Jun-17 10:30N 35°27' E 139°41'0 0.0
2018-Jun-17 10:00N 35°27' E 139°41'0 0.0
2018-Jun-17 09:30N 35°27' E 139°41'0 0.0
2018-Jun-17 09:00N 35°27' E 139°41'0 0.0
2018-Jun-17 08:30N 35°27' E 139°41'0 0.0
2018-Jun-17 08:00N 35°27' E 139°41'0 0.0
2018-Jun-17 07:30N 35°27' E 139°41'0 0.0
2018-Jun-17 06:57N 35°27' E 139°41'0 0.0
2018-Jun-17 06:30N 35°27' E 139°41'0 0.0
2018-Jun-17 06:00N 35°27' E 139°41'0 0.0
2018-Jun-17 05:30N 35°27' E 139°41'0 0.0
2018-Jun-17 05:00N 35°27' E 139°41'0 0.0
2018-Jun-17 04:30N 35°27' E 139°41'0 0.0
2018-Jun-17 04:00N 35°27' E 139°41'0 0.0
2018-Jun-17 03:30N 35°27' E 139°41'0 0.0
2018-Jun-17 03:00N 35°27' E 139°41'0 0.0
2018-Jun-17 02:30N 35°27' E 139°41'0 0.0
2018-Jun-17 02:00N 35°27' E 139°41'0 0.0
2018-Jun-17 01:30N 35°27' E 139°41'0 0.0
2018-Jun-17 01:00N 35°27' E 139°41'1 1.6
2018-Jun-17 00:31N 35°27' E 139°42'4 7.8
2018-Jun-16 23:59N 35°23' E 139°43'510.1
2018-Jun-16 23:30N 35°18' E 139°45'611.0
2018-Jun-16 23:00N 35°13' E 139°47'510.2
2018-Jun-16 22:30N 35°08' E 139°47'4 8.9
2018-Jun-16 22:00N 35°03' E 139°45'  

Dump ship's entire track history